sensor_id;sensor_type;location;lat;lon;timestamp;P1;durP1;ratioP1;P2;durP2;ratioP2
80711;SDS011;70078;51.596;5.678;2023-12-04T00:02:16;13.63;;;7.97;;
80711;SDS011;70078;51.596;5.678;2023-12-04T00:04:42;18.58;;;10.38;;
80711;SDS011;70078;51.596;5.678;2023-12-04T00:07:07;14.63;;;7.57;;
80711;SDS011;70078;51.596;5.678;2023-12-04T00:09:33;17.10;;;9.32;;
80711;SDS011;70078;51.596;5.678;2023-12-04T00:11:58;18.40;;;9.95;;
80711;SDS011;70078;51.596;5.678;2023-12-04T00:14:23;15.45;;;7.30;;
80711;SDS011;70078;51.596;5.678;2023-12-04T00:16:48;17.15;;;9.15;;
80711;SDS011;70078;51.596;5.678;2023-12-04T00:19:14;19.75;;;10.38;;
80711;SDS011;70078;51.596;5.678;2023-12-04T00:21:39;16.67;;;9.70;;
80711;SDS011;70078;51.596;5.678;2023-12-04T00:24:04;17.90;;;9.23;;
80711;SDS011;70078;51.596;5.678;2023-12-04T00:26:30;16.95;;;8.05;;
80711;SDS011;70078;51.596;5.678;2023-12-04T00:28:55;13.25;;;7.70;;
80711;SDS011;70078;51.596;5.678;2023-12-04T00:31:20;12.88;;;6.47;;
80711;SDS011;70078;51.596;5.678;2023-12-04T00:33:46;11.20;;;6.85;;
80711;SDS011;70078;51.596;5.678;2023-12-04T00:36:13;17.83;;;9.88;;
80711;SDS011;70078;51.596;5.678;2023-12-04T00:38:38;13.27;;;6.25;;
80711;SDS011;70078;51.596;5.678;2023-12-04T00:41:03;16.50;;;8.05;;
80711;SDS011;70078;51.596;5.678;2023-12-04T00:43:29;18.73;;;9.35;;
80711;SDS011;70078;51.596;5.678;2023-12-04T00:45:54;18.60;;;8.07;;
80711;SDS011;70078;51.596;5.678;2023-12-04T00:48:19;12.40;;;7.20;;
80711;SDS011;70078;51.596;5.678;2023-12-04T00:50:45;16.70;;;7.95;;
80711;SDS011;70078;51.596;5.678;2023-12-04T00:53:10;16.85;;;9.38;;
80711;SDS011;70078;51.596;5.678;2023-12-04T00:55:36;12.23;;;6.20;;
80711;SDS011;70078;51.596;5.678;2023-12-04T00:58:01;14.75;;;6.82;;
80711;SDS011;70078;51.596;5.678;2023-12-04T01:00:26;12.95;;;6.53;;
80711;SDS011;70078;51.596;5.678;2023-12-04T01:02:52;12.70;;;6.93;;
80711;SDS011;70078;51.596;5.678;2023-12-04T01:05:17;12.85;;;8.02;;
80711;SDS011;70078;51.596;5.678;2023-12-04T01:07:43;17.55;;;8.23;;
80711;SDS011;70078;51.596;5.678;2023-12-04T01:10:08;12.10;;;6.00;;
80711;SDS011;70078;51.596;5.678;2023-12-04T01:12:33;17.98;;;9.80;;
80711;SDS011;70078;51.596;5.678;2023-12-04T01:14:59;17.13;;;9.00;;
80711;SDS011;70078;51.596;5.678;2023-12-04T01:17:26;14.02;;;8.43;;
80711;SDS011;70078;51.596;5.678;2023-12-04T01:19:52;17.90;;;9.75;;
80711;SDS011;70078;51.596;5.678;2023-12-04T01:22:17;14.57;;;8.20;;
80711;SDS011;70078;51.596;5.678;2023-12-04T01:24:42;14.38;;;6.10;;
80711;SDS011;70078;51.596;5.678;2023-12-04T01:27:08;16.08;;;6.13;;
80711;SDS011;70078;51.596;5.678;2023-12-04T01:29:33;15.63;;;7.03;;
80711;SDS011;70078;51.596;5.678;2023-12-04T01:31:58;16.25;;;7.90;;
80711;SDS011;70078;51.596;5.678;2023-12-04T01:34:23;14.60;;;7.93;;
80711;SDS011;70078;51.596;5.678;2023-12-04T01:36:49;20.17;;;8.88;;
80711;SDS011;70078;51.596;5.678;2023-12-04T01:39:14;13.25;;;7.53;;
80711;SDS011;70078;51.596;5.678;2023-12-04T01:41:39;17.00;;;8.57;;
80711;SDS011;70078;51.596;5.678;2023-12-04T01:44:05;15.93;;;9.07;;
80711;SDS011;70078;51.596;5.678;2023-12-04T01:46:30;9.90;;;5.35;;
80711;SDS011;70078;51.596;5.678;2023-12-04T01:48:56;16.25;;;9.50;;
80711;SDS011;70078;51.596;5.678;2023-12-04T01:51:21;15.23;;;7.88;;
80711;SDS011;70078;51.596;5.678;2023-12-04T01:53:48;18.35;;;9.48;;
80711;SDS011;70078;51.596;5.678;2023-12-04T01:56:15;14.82;;;6.90;;
80711;SDS011;70078;51.596;5.678;2023-12-04T01:58:40;13.90;;;6.78;;
80711;SDS011;70078;51.596;5.678;2023-12-04T02:01:07;19.65;;;8.05;;
80711;SDS011;70078;51.596;5.678;2023-12-04T02:03:32;15.65;;;7.57;;
80711;SDS011;70078;51.596;5.678;2023-12-04T02:05:58;17.00;;;8.52;;
80711;SDS011;70078;51.596;5.678;2023-12-04T02:08:25;12.85;;;6.70;;
80711;SDS011;70078;51.596;5.678;2023-12-04T02:10:51;15.35;;;8.05;;
80711;SDS011;70078;51.596;5.678;2023-12-04T02:13:16;15.05;;;7.63;;
80711;SDS011;70078;51.596;5.678;2023-12-04T02:15:42;16.65;;;8.13;;
80711;SDS011;70078;51.596;5.678;2023-12-04T02:18:08;14.52;;;7.50;;
80711;SDS011;70078;51.596;5.678;2023-12-04T02:20:33;17.02;;;9.23;;
80711;SDS011;70078;51.596;5.678;2023-12-04T02:23:02;17.23;;;9.07;;
80711;SDS011;70078;51.596;5.678;2023-12-04T02:25:28;13.50;;;7.55;;
80711;SDS011;70078;51.596;5.678;2023-12-04T02:27:54;14.25;;;7.43;;
80711;SDS011;70078;51.596;5.678;2023-12-04T02:30:23;18.92;;;8.73;;
80711;SDS011;70078;51.596;5.678;2023-12-04T02:32:49;15.68;;;7.68;;
80711;SDS011;70078;51.596;5.678;2023-12-04T02:35:19;14.10;;;8.00;;
80711;SDS011;70078;51.596;5.678;2023-12-04T02:37:46;15.40;;;7.07;;
80711;SDS011;70078;51.596;5.678;2023-12-04T02:40:12;13.35;;;6.95;;
80711;SDS011;70078;51.596;5.678;2023-12-04T02:42:38;17.67;;;8.07;;
80711;SDS011;70078;51.596;5.678;2023-12-04T02:45:03;13.45;;;7.32;;
80711;SDS011;70078;51.596;5.678;2023-12-04T02:47:29;12.90;;;7.53;;
80711;SDS011;70078;51.596;5.678;2023-12-04T02:49:54;12.70;;;7.28;;
80711;SDS011;70078;51.596;5.678;2023-12-04T02:52:20;11.07;;;4.45;;
80711;SDS011;70078;51.596;5.678;2023-12-04T02:54:45;16.60;;;6.60;;
80711;SDS011;70078;51.596;5.678;2023-12-04T02:57:10;12.38;;;6.05;;
80711;SDS011;70078;51.596;5.678;2023-12-04T02:59:35;13.55;;;8.23;;
80711;SDS011;70078;51.596;5.678;2023-12-04T03:02:01;13.93;;;8.52;;
80711;SDS011;70078;51.596;5.678;2023-12-04T03:04:27;15.10;;;7.03;;
80711;SDS011;70078;51.596;5.678;2023-12-04T03:06:54;11.65;;;5.38;;
80711;SDS011;70078;51.596;5.678;2023-12-04T03:09:19;10.15;;;5.03;;
80711;SDS011;70078;51.596;5.678;2023-12-04T03:11:45;14.48;;;8.52;;
80711;SDS011;70078;51.596;5.678;2023-12-04T03:14:10;13.23;;;6.85;;
80711;SDS011;70078;51.596;5.678;2023-12-04T03:16:35;13.40;;;6.93;;
80711;SDS011;70078;51.596;5.678;2023-12-04T03:19:00;12.27;;;6.70;;
80711;SDS011;70078;51.596;5.678;2023-12-04T03:21:26;11.88;;;6.57;;
80711;SDS011;70078;51.596;5.678;2023-12-04T03:23:53;12.20;;;5.28;;
80711;SDS011;70078;51.596;5.678;2023-12-04T03:26:19;13.25;;;6.55;;
80711;SDS011;70078;51.596;5.678;2023-12-04T03:28:44;12.88;;;6.10;;
80711;SDS011;70078;51.596;5.678;2023-12-04T03:31:09;13.00;;;6.25;;
80711;SDS011;70078;51.596;5.678;2023-12-04T03:33:35;14.98;;;7.40;;
80711;SDS011;70078;51.596;5.678;2023-12-04T03:36:00;14.50;;;7.65;;
80711;SDS011;70078;51.596;5.678;2023-12-04T03:38:26;10.75;;;7.35;;
80711;SDS011;70078;51.596;5.678;2023-12-04T03:40:51;14.43;;;7.05;;
80711;SDS011;70078;51.596;5.678;2023-12-04T03:43:16;11.48;;;5.30;;
80711;SDS011;70078;51.596;5.678;2023-12-04T03:45:42;11.48;;;6.32;;
80711;SDS011;70078;51.596;5.678;2023-12-04T03:48:07;11.70;;;7.05;;
80711;SDS011;70078;51.596;5.678;2023-12-04T03:50:32;9.23;;;3.72;;
80711;SDS011;70078;51.596;5.678;2023-12-04T03:52:58;12.30;;;5.82;;
80711;SDS011;70078;51.596;5.678;2023-12-04T03:55:23;15.55;;;7.25;;
80711;SDS011;70078;51.596;5.678;2023-12-04T03:57:48;11.43;;;6.15;;
80711;SDS011;70078;51.596;5.678;2023-12-04T04:00:14;12.18;;;6.60;;
80711;SDS011;70078;51.596;5.678;2023-12-04T04:02:39;13.77;;;7.95;;
80711;SDS011;70078;51.596;5.678;2023-12-04T04:05:06;8.88;;;4.38;;
80711;SDS011;70078;51.596;5.678;2023-12-04T04:07:31;12.05;;;6.55;;
80711;SDS011;70078;51.596;5.678;2023-12-04T04:09:57;11.02;;;6.35;;
80711;SDS011;70078;51.596;5.678;2023-12-04T04:12:22;13.20;;;5.55;;
80711;SDS011;70078;51.596;5.678;2023-12-04T04:14:47;11.48;;;6.68;;
80711;SDS011;70078;51.596;5.678;2023-12-04T04:17:13;13.93;;;8.60;;
80711;SDS011;70078;51.596;5.678;2023-12-04T04:19:38;8.02;;;4.80;;
80711;SDS011;70078;51.596;5.678;2023-12-04T04:22:03;12.75;;;6.63;;
80711;SDS011;70078;51.596;5.678;2023-12-04T04:24:28;13.38;;;9.05;;
80711;SDS011;70078;51.596;5.678;2023-12-04T04:26:54;8.57;;;5.00;;
80711;SDS011;70078;51.596;5.678;2023-12-04T04:29:19;12.90;;;5.25;;
80711;SDS011;70078;51.596;5.678;2023-12-04T04:31:44;13.00;;;5.07;;
80711;SDS011;70078;51.596;5.678;2023-12-04T04:34:10;14.18;;;7.70;;
80711;SDS011;70078;51.596;5.678;2023-12-04T04:36:35;11.60;;;6.65;;
80711;SDS011;70078;51.596;5.678;2023-12-04T04:39:01;10.93;;;7.35;;
80711;SDS011;70078;51.596;5.678;2023-12-04T04:41:26;12.25;;;7.72;;
80711;SDS011;70078;51.596;5.678;2023-12-04T04:43:51;9.40;;;6.07;;
80711;SDS011;70078;51.596;5.678;2023-12-04T04:46:18;12.57;;;6.57;;
80711;SDS011;70078;51.596;5.678;2023-12-04T04:48:43;10.23;;;5.18;;
80711;SDS011;70078;51.596;5.678;2023-12-04T04:51:08;11.48;;;6.95;;
80711;SDS011;70078;51.596;5.678;2023-12-04T04:53:34;13.57;;;7.55;;
80711;SDS011;70078;51.596;5.678;2023-12-04T04:55:59;12.32;;;7.80;;
80711;SDS011;70078;51.596;5.678;2023-12-04T04:58:25;14.80;;;8.88;;
80711;SDS011;70078;51.596;5.678;2023-12-04T05:00:50;12.05;;;6.32;;
80711;SDS011;70078;51.596;5.678;2023-12-04T05:03:15;9.65;;;3.88;;
80711;SDS011;70078;51.596;5.678;2023-12-04T05:05:41;12.75;;;7.03;;
80711;SDS011;70078;51.596;5.678;2023-12-04T05:08:06;14.05;;;7.25;;
80711;SDS011;70078;51.596;5.678;2023-12-04T05:10:32;13.68;;;6.88;;
80711;SDS011;70078;51.596;5.678;2023-12-04T05:12:57;12.18;;;6.60;;
80711;SDS011;70078;51.596;5.678;2023-12-04T05:15:22;11.43;;;7.63;;
80711;SDS011;70078;51.596;5.678;2023-12-04T05:17:48;11.98;;;7.13;;
80711;SDS011;70078;51.596;5.678;2023-12-04T05:20:13;10.93;;;5.72;;
80711;SDS011;70078;51.596;5.678;2023-12-04T05:22:38;13.20;;;7.43;;
80711;SDS011;70078;51.596;5.678;2023-12-04T05:25:05;14.02;;;6.18;;
80711;SDS011;70078;51.596;5.678;2023-12-04T05:27:31;10.43;;;6.30;;
80711;SDS011;70078;51.596;5.678;2023-12-04T05:29:56;11.05;;;6.88;;
80711;SDS011;70078;51.596;5.678;2023-12-04T05:32:21;11.45;;;5.00;;
80711;SDS011;70078;51.596;5.678;2023-12-04T05:34:46;10.07;;;6.25;;
80711;SDS011;70078;51.596;5.678;2023-12-04T05:37:12;10.63;;;6.75;;
80711;SDS011;70078;51.596;5.678;2023-12-04T05:39:37;9.30;;;4.10;;
80711;SDS011;70078;51.596;5.678;2023-12-04T05:42:02;9.65;;;5.03;;
80711;SDS011;70078;51.596;5.678;2023-12-04T05:44:28;10.02;;;6.03;;
80711;SDS011;70078;51.596;5.678;2023-12-04T05:46:53;8.68;;;4.38;;
80711;SDS011;70078;51.596;5.678;2023-12-04T05:49:18;3.80;;;2.53;;
80711;SDS011;70078;51.596;5.678;2023-12-04T05:51:44;10.70;;;5.15;;
80711;SDS011;70078;51.596;5.678;2023-12-04T05:54:09;10.23;;;6.05;;
80711;SDS011;70078;51.596;5.678;2023-12-04T05:56:34;7.50;;;4.38;;
80711;SDS011;70078;51.596;5.678;2023-12-04T05:58:59;11.02;;;6.97;;
80711;SDS011;70078;51.596;5.678;2023-12-04T06:01:25;7.95;;;3.72;;
80711;SDS011;70078;51.596;5.678;2023-12-04T06:03:50;9.15;;;6.35;;
80711;SDS011;70078;51.596;5.678;2023-12-04T06:06:15;9.32;;;5.55;;
80711;SDS011;70078;51.596;5.678;2023-12-04T06:08:41;10.75;;;5.82;;
80711;SDS011;70078;51.596;5.678;2023-12-04T06:11:06;10.02;;;6.13;;
80711;SDS011;70078;51.596;5.678;2023-12-04T06:13:31;11.05;;;6.88;;
80711;SDS011;70078;51.596;5.678;2023-12-04T06:15:57;9.70;;;4.90;;
80711;SDS011;70078;51.596;5.678;2023-12-04T06:18:22;9.15;;;6.20;;
80711;SDS011;70078;51.596;5.678;2023-12-04T06:20:47;10.00;;;5.80;;
80711;SDS011;70078;51.596;5.678;2023-12-04T06:23:13;10.60;;;6.03;;
80711;SDS011;70078;51.596;5.678;2023-12-04T06:25:39;9.77;;;6.43;;
80711;SDS011;70078;51.596;5.678;2023-12-04T06:28:05;9.57;;;6.00;;
80711;SDS011;70078;51.596;5.678;2023-12-04T06:30:31;9.05;;;6.15;;
80711;SDS011;70078;51.596;5.678;2023-12-04T06:32:56;8.88;;;5.70;;
80711;SDS011;70078;51.596;5.678;2023-12-04T06:35:22;7.35;;;4.18;;
80711;SDS011;70078;51.596;5.678;2023-12-04T06:37:48;8.52;;;4.60;;
80711;SDS011;70078;51.596;5.678;2023-12-04T06:40:15;6.25;;;3.97;;
80711;SDS011;70078;51.596;5.678;2023-12-04T06:42:42;9.10;;;4.43;;
80711;SDS011;70078;51.596;5.678;2023-12-04T06:45:07;8.52;;;5.35;;
80711;SDS011;70078;51.596;5.678;2023-12-04T06:47:33;7.43;;;4.97;;
80711;SDS011;70078;51.596;5.678;2023-12-04T06:49:59;7.90;;;5.50;;
80711;SDS011;70078;51.596;5.678;2023-12-04T06:52:25;7.13;;;3.03;;
80711;SDS011;70078;51.596;5.678;2023-12-04T06:54:50;7.85;;;4.85;;
80711;SDS011;70078;51.596;5.678;2023-12-04T06:57:15;7.85;;;3.60;;
80711;SDS011;70078;51.596;5.678;2023-12-04T06:59:41;8.10;;;4.97;;
80711;SDS011;70078;51.596;5.678;2023-12-04T07:02:07;8.90;;;4.45;;
80711;SDS011;70078;51.596;5.678;2023-12-04T07:04:33;5.97;;;4.22;;
80711;SDS011;70078;51.596;5.678;2023-12-04T07:06:59;7.95;;;5.30;;
80711;SDS011;70078;51.596;5.678;2023-12-04T07:09:29;7.97;;;5.07;;
80711;SDS011;70078;51.596;5.678;2023-12-04T07:11:59;4.20;;;3.45;;
80711;SDS011;70078;51.596;5.678;2023-12-04T07:14:24;4.22;;;3.08;;
80711;SDS011;70078;51.596;5.678;2023-12-04T07:16:50;5.93;;;3.97;;
80711;SDS011;70078;51.596;5.678;2023-12-04T07:19:15;9.70;;;5.05;;
80711;SDS011;70078;51.596;5.678;2023-12-04T07:21:41;9.13;;;5.00;;
80711;SDS011;70078;51.596;5.678;2023-12-04T07:24:07;7.38;;;3.90;;
80711;SDS011;70078;51.596;5.678;2023-12-04T07:26:33;9.82;;;5.78;;
80711;SDS011;70078;51.596;5.678;2023-12-04T07:31:24;4.80;;;3.43;;
80711;SDS011;70078;51.596;5.678;2023-12-04T07:33:52;10.43;;;5.28;;
80711;SDS011;70078;51.596;5.678;2023-12-04T07:36:18;9.75;;;6.43;;
80711;SDS011;70078;51.596;5.678;2023-12-04T07:38:43;11.90;;;7.28;;
80711;SDS011;70078;51.596;5.678;2023-12-04T07:41:08;11.38;;;5.43;;
80711;SDS011;70078;51.596;5.678;2023-12-04T07:43:34;9.02;;;4.72;;
80711;SDS011;70078;51.596;5.678;2023-12-04T07:45:59;7.95;;;4.60;;
80711;SDS011;70078;51.596;5.678;2023-12-04T07:48:25;7.70;;;6.00;;
80711;SDS011;70078;51.596;5.678;2023-12-04T07:53:16;8.93;;;4.90;;
80711;SDS011;70078;51.596;5.678;2023-12-04T07:55:42;8.57;;;5.60;;
80711;SDS011;70078;51.596;5.678;2023-12-04T08:00:34;8.52;;;4.57;;
80711;SDS011;70078;51.596;5.678;2023-12-04T08:02:59;5.38;;;2.95;;
80711;SDS011;70078;51.596;5.678;2023-12-04T08:05:25;8.35;;;4.35;;
80711;SDS011;70078;51.596;5.678;2023-12-04T08:07:52;7.65;;;4.57;;
80711;SDS011;70078;51.596;5.678;2023-12-04T08:10:17;7.68;;;3.83;;
80711;SDS011;70078;51.596;5.678;2023-12-04T08:12:44;9.30;;;6.55;;
80711;SDS011;70078;51.596;5.678;2023-12-04T08:15:10;9.10;;;4.82;;
80711;SDS011;70078;51.596;5.678;2023-12-04T08:17:35;6.88;;;4.75;;
80711;SDS011;70078;51.596;5.678;2023-12-04T08:20:01;7.65;;;4.07;;
80711;SDS011;70078;51.596;5.678;2023-12-04T08:22:26;8.95;;;5.20;;
80711;SDS011;70078;51.596;5.678;2023-12-04T08:24:51;6.95;;;4.30;;
80711;SDS011;70078;51.596;5.678;2023-12-04T08:27:17;8.70;;;5.30;;
80711;SDS011;70078;51.596;5.678;2023-12-04T08:29:42;8.50;;;5.93;;
80711;SDS011;70078;51.596;5.678;2023-12-04T08:32:07;7.53;;;4.82;;
80711;SDS011;70078;51.596;5.678;2023-12-04T08:34:32;7.93;;;5.50;;
80711;SDS011;70078;51.596;5.678;2023-12-04T08:36:58;8.55;;;5.97;;
80711;SDS011;70078;51.596;5.678;2023-12-04T08:39:23;7.70;;;3.58;;
80711;SDS011;70078;51.596;5.678;2023-12-04T08:41:48;7.93;;;4.75;;
80711;SDS011;70078;51.596;5.678;2023-12-04T08:44:14;10.05;;;5.43;;
80711;SDS011;70078;51.596;5.678;2023-12-04T08:46:39;8.70;;;4.43;;
80711;SDS011;70078;51.596;5.678;2023-12-04T08:49:05;8.25;;;4.97;;
80711;SDS011;70078;51.596;5.678;2023-12-04T08:51:30;8.10;;;5.07;;
80711;SDS011;70078;51.596;5.678;2023-12-04T08:53:55;7.88;;;4.15;;
80711;SDS011;70078;51.596;5.678;2023-12-04T08:56:21;8.90;;;5.20;;
80711;SDS011;70078;51.596;5.678;2023-12-04T08:58:46;8.73;;;4.45;;
80711;SDS011;70078;51.596;5.678;2023-12-04T09:01:11;10.15;;;6.40;;
80711;SDS011;70078;51.596;5.678;2023-12-04T09:03:37;9.43;;;5.85;;
80711;SDS011;70078;51.596;5.678;2023-12-04T09:06:02;7.28;;;4.57;;
80711;SDS011;70078;51.596;5.678;2023-12-04T09:08:27;9.50;;;6.88;;
80711;SDS011;70078;51.596;5.678;2023-12-04T09:10:53;8.60;;;5.72;;
80711;SDS011;70078;51.596;5.678;2023-12-04T09:13:18;8.32;;;5.85;;
80711;SDS011;70078;51.596;5.678;2023-12-04T09:15:43;8.57;;;6.00;;
80711;SDS011;70078;51.596;5.678;2023-12-04T09:18:09;11.43;;;5.35;;
80711;SDS011;70078;51.596;5.678;2023-12-04T09:20:34;8.70;;;4.80;;
80711;SDS011;70078;51.596;5.678;2023-12-04T09:22:59;10.82;;;5.03;;
80711;SDS011;70078;51.596;5.678;2023-12-04T09:25:25;9.80;;;5.93;;
80711;SDS011;70078;51.596;5.678;2023-12-04T09:27:51;9.98;;;5.28;;
80711;SDS011;70078;51.596;5.678;2023-12-04T09:30:19;8.98;;;5.43;;
80711;SDS011;70078;51.596;5.678;2023-12-04T09:32:44;4.80;;;3.00;;
80711;SDS011;70078;51.596;5.678;2023-12-04T09:35:10;10.52;;;5.95;;
80711;SDS011;70078;51.596;5.678;2023-12-04T09:37:35;14.23;;;4.15;;
80711;SDS011;70078;51.596;5.678;2023-12-04T09:40:01;13.27;;;6.53;;
80711;SDS011;70078;51.596;5.678;2023-12-04T09:42:26;11.05;;;7.28;;
80711;SDS011;70078;51.596;5.678;2023-12-04T09:44:52;10.40;;;6.68;;
80711;SDS011;70078;51.596;5.678;2023-12-04T09:47:19;18.65;;;5.07;;
80711;SDS011;70078;51.596;5.678;2023-12-04T09:49:46;8.63;;;5.65;;
80711;SDS011;70078;51.596;5.678;2023-12-04T09:52:13;12.35;;;6.60;;
80711;SDS011;70078;51.596;5.678;2023-12-04T09:54:39;9.15;;;5.63;;
80711;SDS011;70078;51.596;5.678;2023-12-04T09:57:05;9.50;;;7.00;;
80711;SDS011;70078;51.596;5.678;2023-12-04T09:59:30;11.35;;;6.35;;
80711;SDS011;70078;51.596;5.678;2023-12-04T10:01:56;11.43;;;6.50;;
80711;SDS011;70078;51.596;5.678;2023-12-04T10:04:22;10.27;;;6.40;;
80711;SDS011;70078;51.596;5.678;2023-12-04T10:06:49;13.43;;;6.95;;
80711;SDS011;70078;51.596;5.678;2023-12-04T10:09:16;12.00;;;6.95;;
80711;SDS011;70078;51.596;5.678;2023-12-04T10:11:44;12.10;;;5.78;;
80711;SDS011;70078;51.596;5.678;2023-12-04T10:14:17;6.63;;;4.65;;
80711;SDS011;70078;51.596;5.678;2023-12-04T10:16:45;12.52;;;7.72;;
80711;SDS011;70078;51.596;5.678;2023-12-04T10:19:14;11.00;;;6.00;;
80711;SDS011;70078;51.596;5.678;2023-12-04T10:21:56;11.60;;;6.03;;
80711;SDS011;70078;51.596;5.678;2023-12-04T10:24:27;10.63;;;4.80;;
80711;SDS011;70078;51.596;5.678;2023-12-04T10:26:58;8.35;;;4.57;;
80711;SDS011;70078;51.596;5.678;2023-12-04T10:29:26;13.88;;;6.03;;
80711;SDS011;70078;51.596;5.678;2023-12-04T10:31:53;9.27;;;4.80;;
80711;SDS011;70078;51.596;5.678;2023-12-04T10:34:20;10.68;;;5.85;;
80711;SDS011;70078;51.596;5.678;2023-12-04T10:36:46;12.57;;;6.35;;
80711;SDS011;70078;51.596;5.678;2023-12-04T10:39:12;12.05;;;5.93;;
80711;SDS011;70078;51.596;5.678;2023-12-04T10:41:42;9.18;;;6.25;;
80711;SDS011;70078;51.596;5.678;2023-12-04T10:44:08;9.88;;;6.38;;
80711;SDS011;70078;51.596;5.678;2023-12-04T10:46:34;10.60;;;7.20;;
80711;SDS011;70078;51.596;5.678;2023-12-04T10:49:00;11.95;;;8.65;;
80711;SDS011;70078;51.596;5.678;2023-12-04T10:51:28;10.13;;;6.68;;
80711;SDS011;70078;51.596;5.678;2023-12-04T10:53:55;9.32;;;6.78;;
80711;SDS011;70078;51.596;5.678;2023-12-04T10:56:25;11.05;;;5.28;;
80711;SDS011;70078;51.596;5.678;2023-12-04T10:58:56;9.38;;;4.55;;
80711;SDS011;70078;51.596;5.678;2023-12-04T11:01:24;12.63;;;8.73;;
80711;SDS011;70078;51.596;5.678;2023-12-04T11:03:51;12.35;;;7.55;;
80711;SDS011;70078;51.596;5.678;2023-12-04T11:06:19;10.82;;;7.47;;
80711;SDS011;70078;51.596;5.678;2023-12-04T11:08:47;8.48;;;4.72;;
80711;SDS011;70078;51.596;5.678;2023-12-04T11:11:15;10.60;;;4.75;;
80711;SDS011;70078;51.596;5.678;2023-12-04T11:13:45;13.40;;;8.48;;
80711;SDS011;70078;51.596;5.678;2023-12-04T11:18:56;11.02;;;6.68;;
80711;SDS011;70078;51.596;5.678;2023-12-04T11:21:28;11.07;;;7.45;;
80711;SDS011;70078;51.596;5.678;2023-12-04T11:23:55;8.90;;;5.57;;
80711;SDS011;70078;51.596;5.678;2023-12-04T11:26:23;12.13;;;7.78;;
80711;SDS011;70078;51.596;5.678;2023-12-04T11:28:50;11.32;;;8.18;;
80711;SDS011;70078;51.596;5.678;2023-12-04T11:31:16;11.77;;;9.05;;
80711;SDS011;70078;51.596;5.678;2023-12-04T11:33:42;8.20;;;5.72;;
80711;SDS011;70078;51.596;5.678;2023-12-04T11:36:08;10.02;;;5.95;;
80711;SDS011;70078;51.596;5.678;2023-12-04T11:38:37;9.85;;;6.10;;
80711;SDS011;70078;51.596;5.678;2023-12-04T11:41:18;13.52;;;6.75;;
80711;SDS011;70078;51.596;5.678;2023-12-04T11:43:45;10.07;;;6.72;;
80711;SDS011;70078;51.596;5.678;2023-12-04T11:46:12;11.05;;;6.82;;
80711;SDS011;70078;51.596;5.678;2023-12-04T11:48:39;10.75;;;7.07;;
80711;SDS011;70078;51.596;5.678;2023-12-04T11:51:05;14.45;;;8.00;;
80711;SDS011;70078;51.596;5.678;2023-12-04T11:53:32;10.20;;;6.47;;
80711;SDS011;70078;51.596;5.678;2023-12-04T11:55:57;7.50;;;5.00;;
80711;SDS011;70078;51.596;5.678;2023-12-04T11:58:23;10.57;;;7.82;;
80711;SDS011;70078;51.596;5.678;2023-12-04T12:00:48;12.80;;;7.25;;
80711;SDS011;70078;51.596;5.678;2023-12-04T12:03:14;12.35;;;6.03;;
80711;SDS011;70078;51.596;5.678;2023-12-04T12:08:06;12.18;;;4.93;;
80711;SDS011;70078;51.596;5.678;2023-12-04T12:10:33;10.82;;;6.63;;
80711;SDS011;70078;51.596;5.678;2023-12-04T12:12:59;12.13;;;6.13;;
80711;SDS011;70078;51.596;5.678;2023-12-04T12:15:25;9.85;;;5.13;;
80711;SDS011;70078;51.596;5.678;2023-12-04T12:17:51;11.25;;;7.60;;
80711;SDS011;70078;51.596;5.678;2023-12-04T12:20:16;10.90;;;6.75;;
80711;SDS011;70078;51.596;5.678;2023-12-04T12:22:42;10.48;;;6.85;;
80711;SDS011;70078;51.596;5.678;2023-12-04T12:25:11;11.05;;;7.03;;
80711;SDS011;70078;51.596;5.678;2023-12-04T12:27:37;9.40;;;5.47;;
80711;SDS011;70078;51.596;5.678;2023-12-04T12:30:03;8.75;;;6.15;;
80711;SDS011;70078;51.596;5.678;2023-12-04T12:32:33;7.13;;;4.65;;
80711;SDS011;70078;51.596;5.678;2023-12-04T12:34:59;6.20;;;4.25;;
80711;SDS011;70078;51.596;5.678;2023-12-04T12:37:24;12.60;;;8.48;;
80711;SDS011;70078;51.596;5.678;2023-12-04T12:39:49;10.73;;;7.10;;
80711;SDS011;70078;51.596;5.678;2023-12-04T12:42:22;8.07;;;4.35;;
80711;SDS011;70078;51.596;5.678;2023-12-04T12:44:48;7.40;;;4.95;;
80711;SDS011;70078;51.596;5.678;2023-12-04T12:47:14;10.43;;;5.85;;
80711;SDS011;70078;51.596;5.678;2023-12-04T12:52:05;10.82;;;7.05;;
80711;SDS011;70078;51.596;5.678;2023-12-04T12:54:36;9.55;;;6.03;;
80711;SDS011;70078;51.596;5.678;2023-12-04T12:57:02;8.45;;;5.13;;
80711;SDS011;70078;51.596;5.678;2023-12-04T12:59:27;10.88;;;6.78;;
80711;SDS011;70078;51.596;5.678;2023-12-04T13:01:53;8.02;;;5.50;;
80711;SDS011;70078;51.596;5.678;2023-12-04T13:04:18;10.20;;;6.00;;
80711;SDS011;70078;51.596;5.678;2023-12-04T13:06:43;8.07;;;5.40;;
80711;SDS011;70078;51.596;5.678;2023-12-04T13:09:09;7.22;;;4.20;;
80711;SDS011;70078;51.596;5.678;2023-12-04T13:11:42;10.25;;;6.22;;
80711;SDS011;70078;51.596;5.678;2023-12-04T13:14:08;11.38;;;6.47;;
80711;SDS011;70078;51.596;5.678;2023-12-04T13:16:33;10.77;;;6.07;;
80711;SDS011;70078;51.596;5.678;2023-12-04T13:18:58;10.25;;;5.68;;
80711;SDS011;70078;51.596;5.678;2023-12-04T13:21:24;10.55;;;6.05;;
80711;SDS011;70078;51.596;5.678;2023-12-04T13:23:49;8.75;;;5.35;;
80711;SDS011;70078;51.596;5.678;2023-12-04T13:26:14;13.73;;;8.40;;
80711;SDS011;70078;51.596;5.678;2023-12-04T13:28:40;11.07;;;5.72;;
80711;SDS011;70078;51.596;5.678;2023-12-04T13:31:05;5.65;;;3.83;;
80711;SDS011;70078;51.596;5.678;2023-12-04T13:33:31;8.40;;;6.32;;
80711;SDS011;70078;51.596;5.678;2023-12-04T13:35:57;7.90;;;5.45;;
80711;SDS011;70078;51.596;5.678;2023-12-04T13:38:22;5.82;;;3.45;;
80711;SDS011;70078;51.596;5.678;2023-12-04T13:40:47;10.60;;;6.05;;
80711;SDS011;70078;51.596;5.678;2023-12-04T13:43:25;7.50;;;5.50;;
80711;SDS011;70078;51.596;5.678;2023-12-04T13:46:10;5.03;;;3.13;;
80711;SDS011;70078;51.596;5.678;2023-12-04T13:48:35;10.60;;;7.22;;
80711;SDS011;70078;51.596;5.678;2023-12-04T13:51:04;8.82;;;5.22;;
80711;SDS011;70078;51.596;5.678;2023-12-04T13:53:30;9.32;;;5.43;;
80711;SDS011;70078;51.596;5.678;2023-12-04T13:55:55;8.82;;;4.55;;
80711;SDS011;70078;51.596;5.678;2023-12-04T13:58:26;11.55;;;7.00;;
80711;SDS011;70078;51.596;5.678;2023-12-04T14:01:01;11.32;;;7.18;;
80711;SDS011;70078;51.596;5.678;2023-12-04T14:03:34;10.82;;;6.88;;
80711;SDS011;70078;51.596;5.678;2023-12-04T14:06:00;6.43;;;4.60;;
80711;SDS011;70078;51.596;5.678;2023-12-04T14:08:26;8.23;;;5.22;;
80711;SDS011;70078;51.596;5.678;2023-12-04T14:10:51;4.53;;;3.80;;
80711;SDS011;70078;51.596;5.678;2023-12-04T14:13:16;12.63;;;7.70;;
80711;SDS011;70078;51.596;5.678;2023-12-04T14:15:41;12.77;;;6.40;;
80711;SDS011;70078;51.596;5.678;2023-12-04T14:18:08;11.63;;;6.47;;
80711;SDS011;70078;51.596;5.678;2023-12-04T14:20:33;9.32;;;7.25;;
80711;SDS011;70078;51.596;5.678;2023-12-04T14:22:58;12.48;;;5.97;;
80711;SDS011;70078;51.596;5.678;2023-12-04T14:25:24;4.90;;;3.03;;
80711;SDS011;70078;51.596;5.678;2023-12-04T14:27:49;10.32;;;6.38;;
80711;SDS011;70078;51.596;5.678;2023-12-04T14:30:14;10.32;;;7.03;;
80711;SDS011;70078;51.596;5.678;2023-12-04T14:32:40;7.97;;;5.65;;
80711;SDS011;70078;51.596;5.678;2023-12-04T14:35:06;10.27;;;6.68;;
80711;SDS011;70078;51.596;5.678;2023-12-04T14:37:32;9.40;;;7.18;;
80711;SDS011;70078;51.596;5.678;2023-12-04T14:39:58;12.00;;;7.20;;
80711;SDS011;70078;51.596;5.678;2023-12-04T14:42:23;10.95;;;7.35;;
80711;SDS011;70078;51.596;5.678;2023-12-04T14:44:49;11.15;;;7.25;;
80711;SDS011;70078;51.596;5.678;2023-12-04T14:47:14;11.50;;;7.55;;